Wetterdaten: aktuell Mittwoch, 06.05.2026 18:30
Datum Zeit Temperatur Luftfeuchte Luftdruck Regen Wind Richtung Richtung Sonnenschein Helligkeit Taupunkt Windchill
06.05.2026 18:30 9,4 °C 90 % 1005,7 hPa 0,4 l/m² 14,0 km/h (3 Bft) S-SO±22.5° 160 ° 0 min 5,69 klux 7,8 °C 4,9 °C
06.05.2026 17:30 10,2 °C 88 % 1005,4 hPa 0,7 l/m² 14,5 km/h (3 Bft) S-SW±45° 210 ° 0 min 7,42 klux 8,3 °C 5,6 °C
06.05.2026 16:30 11,6 °C 87 % 1005,0 hPa 0,0 l/m² 11,3 km/h (2 Bft) S±45° 185 ° 0 min 21,2 klux 9,5 °C 8,7 °C
06.05.2026 15:30 12,0 °C 87 % 1003,8 hPa 2,5 l/m² 20,2 km/h (4 Bft) S-SW±45° 195 ° 0 min 44,8 klux 9,9 °C 5,8 °C
06.05.2026 14:30 13,5 °C 77 % 1003,4 hPa 0,0 l/m² 13,2 km/h (3 Bft) SW±22.5° 225 ° 0 min 9,8 klux 9,5 °C 10,1 °C
06.05.2026 13:30 15,2 °C 70 % 1002,9 hPa 0,0 l/m² 21,5 km/h (4 Bft) S-SW±45° 200 ° 0 min 20,0 klux 9,8 °C 9,6 °C
06.05.2026 12:30 16,4 °C 69 % 1002,5 hPa 0,0 l/m² 4,3 km/h (1 Bft) N 360 ° 13 min 19,0 klux 10,7 °C 16,4 °C
06.05.2026 11:30 15,3 °C 73 % 1002,8 hPa 0,0 l/m² 7,3 km/h (2 Bft) W-SW±45° 240 ° 24 min 33,4 klux 10,5 °C 14,8 °C
06.05.2026 10:30 13,1 °C 81 % 1003,5 hPa 0,0 l/m² 16,1 km/h (3 Bft) S-SO±45° 160 ° 24 min 92,8 klux 9,9 °C 8,5 °C
06.05.2026 09:30 11,7 °C 84 % 1003,9 hPa 0,0 l/m² 10,5 km/h (2 Bft) S±22.5° 175 ° 10 min 37,7 klux 9,1 °C 9,2 °C
06.05.2026 08:30 10,9 °C 87 % 1004,1 hPa 0,0 l/m² 9,5 km/h (2 Bft) S±22.5° 180 ° 24 min 19,1 klux 8,8 °C 8,9 °C
06.05.2026 07:30 10,0 °C 89 % 1004,4 hPa 0,0 l/m² 2,1 km/h (1 Bft) S-SW±67.5° 205 ° 30 min 10,0 klux 8,3 °C 10,0 °C
06.05.2026 06:30 8,8 °C 89 % 1004,8 hPa 0,0 l/m² 7,1 km/h (2 Bft) S±22.5° 170 ° 0 min 2,42 klux 7,1 °C 8,3 °C
06.05.2026 05:30 9,4 °C 87 % 1005,7 hPa 0,0 l/m² 11,9 km/h (2 Bft) S-SW±67.5° 210 ° 0 min 0 lux 7,3 °C 5,9 °C
06.05.2026 04:30 9,6 °C 88 % 1005,6 hPa 0,0 l/m² 13,9 km/h (3 Bft) SW±45° 215 ° 0 min 0 lux 7,7 °C 5,1 °C
06.05.2026 03:30 9,6 °C 90 % 1005,6 hPa 0,0 l/m² 14,5 km/h (3 Bft) S-SW±22.5° 195 ° 0 min 0 lux 8,0 °C 4,9 °C
06.05.2026 02:30 9,5 °C 90 % 1006,7 hPa 0,0 l/m² 8,2 km/h (2 Bft) S-SO±22.5° 165 ° 0 min 0 lux 7,9 °C 8,2 °C
06.05.2026 01:30 10,0 °C 89 % 1006,6 hPa 0,0 l/m² 10,0 km/h (2 Bft) S-SW±45° 200 ° 0 min 0 lux 8,3 °C 7,6 °C
06.05.2026 00:30 10,3 °C 89 % 1006,5 hPa 0,0 l/m² 9,4 km/h (2 Bft) S±22.5° 180 ° 0 min 0 lux 8,6 °C 8,3 °C
05.05.2026 23:30 10,4 °C 89 % 1006,5 hPa 0,0 l/m² 4,0 km/h (1 Bft) S±22.5° 185 ° 0 min 0 lux 8,7 °C 10,4 °C
05.05.2026 22:30 10,7 °C 89 % 1006,4 hPa 0,0 l/m² 5,3 km/h (1 Bft) S-SO 160 ° 0 min 0 lux 9,0 °C 10,7 °C
05.05.2026 21:30 10,8 °C 87 % 1006,3 hPa 0,4 l/m² 1,0 km/h (0 Bft) S-SO±45° 160 ° 0 min 1 lux 8,7 °C 10,8 °C
05.05.2026 20:30 11,5 °C 86 % 1006,1 hPa 0,0 l/m² 0,5 km/h (0 Bft) S 180 ° 0 min 1,22 klux 9,2 °C 11,5 °C
05.05.2026 19:30 12,6 °C 84 % 1005,8 hPa 0,0 l/m² 21,6 km/h (4 Bft) S-SW±22.5° 200 ° 0 min 8,14 klux 10,0 °C 6,2 °C
05.05.2026 19:00 13,2 °C 82 % 1004,5 hPa 0,0 l/m² 8,0 km/h (2 Bft) S±22.5° 175 ° 0 min 3,90 klux 10,2 °C 12,2 °C
_ Min-Zeit 06:30 12:33 12:19 - 20:51 - - - - 06:33 17:21
Minimum _ 8,8 °C 68 % 1002,5 hPa - 0,0 km/h (0 Bft) - - - - 6,9 °C 2,3 °C
_ Max-Zeit 12:19 00:18 02:24 14:33 16:45 - - 09:13 11:58 12:04 12:19
Maximum _ 16,6 °C 90 % 1006,7 hPa 0,7 l/m² 28,9 km/h
S (5 Bft)
- - 4 min 122 klux 11,6 °C 16,6 °C
Durchschnitt _ 11,5 °C 85 % 1004,9 hPa #4,0 l/m² 10,3 km/h (2 Bft) S - #2:05 h 13,4 klux 9,0 °C 9,0 °C